sensor_id;sensor_type;location;lat;lon;timestamp;temperature;humidity
6627;DHT22;3349;49.830;8.748;2023-02-01T00:02:09;4.90;99.90
6627;DHT22;3349;49.830;8.748;2023-02-01T00:04:35;4.90;99.90
6627;DHT22;3349;49.830;8.748;2023-02-01T00:07:02;4.90;99.90
6627;DHT22;3349;49.830;8.748;2023-02-01T00:09:29;4.90;99.90
6627;DHT22;3349;49.830;8.748;2023-02-01T00:11:55;4.90;99.90
6627;DHT22;3349;49.830;8.748;2023-02-01T00:14:24;4.90;99.90
6627;DHT22;3349;49.830;8.748;2023-02-01T00:16:51;4.90;99.90
6627;DHT22;3349;49.830;8.748;2023-02-01T00:19:19;4.90;99.90
6627;DHT22;3349;49.830;8.748;2023-02-01T00:21:46;4.90;99.90
6627;DHT22;3349;49.830;8.748;2023-02-01T00:24:13;4.90;99.90
6627;DHT22;3349;49.830;8.748;2023-02-01T00:26:41;4.90;99.90
6627;DHT22;3349;49.830;8.748;2023-02-01T00:29:11;4.90;99.90
6627;DHT22;3349;49.830;8.748;2023-02-01T00:31:38;4.90;99.90
6627;DHT22;3349;49.830;8.748;2023-02-01T00:34:04;4.90;99.90
6627;DHT22;3349;49.830;8.748;2023-02-01T00:36:33;4.90;99.90
6627;DHT22;3349;49.830;8.748;2023-02-01T00:39:00;4.90;99.90
6627;DHT22;3349;49.830;8.748;2023-02-01T00:41:26;4.90;99.90
6627;DHT22;3349;49.830;8.748;2023-02-01T00:43:53;4.80;99.90
6627;DHT22;3349;49.830;8.748;2023-02-01T00:46:20;4.80;99.90
6627;DHT22;3349;49.830;8.748;2023-02-01T00:48:47;4.80;99.90
6627;DHT22;3349;49.830;8.748;2023-02-01T00:51:16;4.80;99.90
6627;DHT22;3349;49.830;8.748;2023-02-01T00:53:44;4.80;99.90
6627;DHT22;3349;49.830;8.748;2023-02-01T00:56:12;4.80;99.90
6627;DHT22;3349;49.830;8.748;2023-02-01T00:58:39;4.80;99.90
6627;DHT22;3349;49.830;8.748;2023-02-01T01:01:09;4.80;99.90
6627;DHT22;3349;49.830;8.748;2023-02-01T01:03:38;4.80;99.90
6627;DHT22;3349;49.830;8.748;2023-02-01T01:06:07;4.80;99.90
6627;DHT22;3349;49.830;8.748;2023-02-01T01:08:34;4.80;99.90
6627;DHT22;3349;49.830;8.748;2023-02-01T01:11:06;4.80;99.90
6627;DHT22;3349;49.830;8.748;2023-02-01T01:13:33;4.80;99.90
6627;DHT22;3349;49.830;8.748;2023-02-01T01:16:00;4.80;99.90
6627;DHT22;3349;49.830;8.748;2023-02-01T01:18:28;4.80;99.90
6627;DHT22;3349;49.830;8.748;2023-02-01T01:20:55;4.80;99.90
6627;DHT22;3349;49.830;8.748;2023-02-01T01:23:22;4.80;99.90
6627;DHT22;3349;49.830;8.748;2023-02-01T01:25:48;4.90;99.90
6627;DHT22;3349;49.830;8.748;2023-02-01T01:28:17;4.90;99.90
6627;DHT22;3349;49.830;8.748;2023-02-01T01:30:43;4.90;99.90
6627;DHT22;3349;49.830;8.748;2023-02-01T01:33:10;4.90;99.90
6627;DHT22;3349;49.830;8.748;2023-02-01T01:35:36;5.00;99.90
6627;DHT22;3349;49.830;8.748;2023-02-01T01:38:03;5.00;99.90
6627;DHT22;3349;49.830;8.748;2023-02-01T01:40:30;4.90;99.90
6627;DHT22;3349;49.830;8.748;2023-02-01T01:42:58;5.00;99.90
6627;DHT22;3349;49.830;8.748;2023-02-01T01:45:27;5.00;99.90
6627;DHT22;3349;49.830;8.748;2023-02-01T01:47:56;5.00;99.90
6627;DHT22;3349;49.830;8.748;2023-02-01T01:50:27;5.00;99.90
6627;DHT22;3349;49.830;8.748;2023-02-01T01:52:57;5.00;99.90
6627;DHT22;3349;49.830;8.748;2023-02-01T01:55:26;5.00;99.90
6627;DHT22;3349;49.830;8.748;2023-02-01T01:57:56;5.00;99.90
6627;DHT22;3349;49.830;8.748;2023-02-01T02:00:23;5.00;99.90
6627;DHT22;3349;49.830;8.748;2023-02-01T02:02:58;5.00;99.90
6627;DHT22;3349;49.830;8.748;2023-02-01T02:05:29;5.00;99.90
6627;DHT22;3349;49.830;8.748;2023-02-01T02:07:59;5.00;99.90
6627;DHT22;3349;49.830;8.748;2023-02-01T02:10:26;5.00;99.90
6627;DHT22;3349;49.830;8.748;2023-02-01T02:13:14;4.90;99.90
6627;DHT22;3349;49.830;8.748;2023-02-01T02:15:45;4.90;99.90
6627;DHT22;3349;49.830;8.748;2023-02-01T02:18:20;5.00;99.90
6627;DHT22;3349;49.830;8.748;2023-02-01T02:21:07;4.90;99.90
6627;DHT22;3349;49.830;8.748;2023-02-01T02:23:59;4.90;99.90
6627;DHT22;3349;49.830;8.748;2023-02-01T02:26:42;4.90;99.90
6627;DHT22;3349;49.830;8.748;2023-02-01T02:29:37;4.90;99.90
6627;DHT22;3349;49.830;8.748;2023-02-01T02:32:47;4.90;99.90
6627;DHT22;3349;49.830;8.748;2023-02-01T02:35:26;4.90;99.90
6627;DHT22;3349;49.830;8.748;2023-02-01T02:38:02;4.90;99.90
6627;DHT22;3349;49.830;8.748;2023-02-01T02:40:35;4.90;99.90
6627;DHT22;3349;49.830;8.748;2023-02-01T02:43:09;4.90;99.90
6627;DHT22;3349;49.830;8.748;2023-02-01T02:46:00;4.90;99.90
6627;DHT22;3349;49.830;8.748;2023-02-01T02:48:47;4.90;99.90
6627;DHT22;3349;49.830;8.748;2023-02-01T02:51:23;4.90;99.90
6627;DHT22;3349;49.830;8.748;2023-02-01T02:54:11;4.90;99.90
6627;DHT22;3349;49.830;8.748;2023-02-01T02:56:58;4.90;99.90
6627;DHT22;3349;49.830;8.748;2023-02-01T02:59:45;4.90;99.90
6627;DHT22;3349;49.830;8.748;2023-02-01T03:02:30;4.90;99.90
6627;DHT22;3349;49.830;8.748;2023-02-01T03:05:15;5.00;99.90
6627;DHT22;3349;49.830;8.748;2023-02-01T03:07:54;5.00;99.90
6627;DHT22;3349;49.830;8.748;2023-02-01T03:10:27;5.00;99.90
6627;DHT22;3349;49.830;8.748;2023-02-01T03:13:01;5.00;99.90
6627;DHT22;3349;49.830;8.748;2023-02-01T03:15:34;5.00;99.90
6627;DHT22;3349;49.830;8.748;2023-02-01T03:18:04;5.00;99.90
6627;DHT22;3349;49.830;8.748;2023-02-01T03:20:33;4.90;99.90
6627;DHT22;3349;49.830;8.748;2023-02-01T03:23:02;4.90;99.90
6627;DHT22;3349;49.830;8.748;2023-02-01T03:25:33;4.90;99.90
6627;DHT22;3349;49.830;8.748;2023-02-01T03:28:02;4.90;99.90
6627;DHT22;3349;49.830;8.748;2023-02-01T03:30:32;4.80;99.90
6627;DHT22;3349;49.830;8.748;2023-02-01T03:33:04;4.80;99.90
6627;DHT22;3349;49.830;8.748;2023-02-01T03:35:40;4.80;99.90
6627;DHT22;3349;49.830;8.748;2023-02-01T03:38:16;4.80;99.90
6627;DHT22;3349;49.830;8.748;2023-02-01T03:40:49;4.70;99.90
6627;DHT22;3349;49.830;8.748;2023-02-01T03:43:19;4.70;99.90
6627;DHT22;3349;49.830;8.748;2023-02-01T03:45:52;4.60;99.90
6627;DHT22;3349;49.830;8.748;2023-02-01T03:48:22;4.60;99.90
6627;DHT22;3349;49.830;8.748;2023-02-01T03:50:54;4.60;99.90
6627;DHT22;3349;49.830;8.748;2023-02-01T03:53:24;4.60;99.90
6627;DHT22;3349;49.830;8.748;2023-02-01T03:55:52;4.60;99.90
6627;DHT22;3349;49.830;8.748;2023-02-01T03:58:21;4.60;99.90
6627;DHT22;3349;49.830;8.748;2023-02-01T04:00:51;4.60;99.90
6627;DHT22;3349;49.830;8.748;2023-02-01T04:03:19;4.60;99.90
6627;DHT22;3349;49.830;8.748;2023-02-01T04:05:47;4.60;99.90
6627;DHT22;3349;49.830;8.748;2023-02-01T04:08:14;4.60;99.90
6627;DHT22;3349;49.830;8.748;2023-02-01T04:10:42;4.70;99.90
6627;DHT22;3349;49.830;8.748;2023-02-01T04:13:09;4.70;99.90
6627;DHT22;3349;49.830;8.748;2023-02-01T04:15:36;4.70;99.90
6627;DHT22;3349;49.830;8.748;2023-02-01T04:18:03;4.70;99.90
6627;DHT22;3349;49.830;8.748;2023-02-01T04:20:30;4.80;99.90
6627;DHT22;3349;49.830;8.748;2023-02-01T04:22:56;4.80;99.90
6627;DHT22;3349;49.830;8.748;2023-02-01T04:25:23;4.80;99.90
6627;DHT22;3349;49.830;8.748;2023-02-01T04:27:51;4.80;99.90
6627;DHT22;3349;49.830;8.748;2023-02-01T04:30:18;4.80;99.90
6627;DHT22;3349;49.830;8.748;2023-02-01T04:32:45;4.80;99.90
6627;DHT22;3349;49.830;8.748;2023-02-01T04:35:12;4.80;99.90
6627;DHT22;3349;49.830;8.748;2023-02-01T04:37:38;4.80;99.90
6627;DHT22;3349;49.830;8.748;2023-02-01T04:40:06;4.80;99.90
6627;DHT22;3349;49.830;8.748;2023-02-01T04:42:33;4.80;99.90
6627;DHT22;3349;49.830;8.748;2023-02-01T04:45:01;4.80;99.90
6627;DHT22;3349;49.830;8.748;2023-02-01T04:47:28;4.80;99.90
6627;DHT22;3349;49.830;8.748;2023-02-01T04:49:54;4.80;99.90
6627;DHT22;3349;49.830;8.748;2023-02-01T04:52:21;4.90;99.90
6627;DHT22;3349;49.830;8.748;2023-02-01T04:54:48;4.90;99.90
6627;DHT22;3349;49.830;8.748;2023-02-01T04:57:15;4.80;99.90
6627;DHT22;3349;49.830;8.748;2023-02-01T04:59:42;4.80;99.90
6627;DHT22;3349;49.830;8.748;2023-02-01T05:02:10;4.80;99.90
6627;DHT22;3349;49.830;8.748;2023-02-01T05:04:36;4.80;99.90
6627;DHT22;3349;49.830;8.748;2023-02-01T05:07:03;4.80;99.90
6627;DHT22;3349;49.830;8.748;2023-02-01T05:09:29;4.90;99.90
6627;DHT22;3349;49.830;8.748;2023-02-01T05:11:56;4.90;99.90
6627;DHT22;3349;49.830;8.748;2023-02-01T05:14:40;4.80;99.90
6627;DHT22;3349;49.830;8.748;2023-02-01T05:17:07;4.90;99.90
6627;DHT22;3349;49.830;8.748;2023-02-01T05:19:35;4.80;99.90
6627;DHT22;3349;49.830;8.748;2023-02-01T05:22:02;4.80;99.90
6627;DHT22;3349;49.830;8.748;2023-02-01T05:24:28;4.80;99.90
6627;DHT22;3349;49.830;8.748;2023-02-01T05:26:55;4.80;99.90
6627;DHT22;3349;49.830;8.748;2023-02-01T05:29:22;4.80;99.90
6627;DHT22;3349;49.830;8.748;2023-02-01T05:31:48;4.80;99.90
6627;DHT22;3349;49.830;8.748;2023-02-01T05:34:15;4.80;99.90
6627;DHT22;3349;49.830;8.748;2023-02-01T05:36:44;4.80;99.90
6627;DHT22;3349;49.830;8.748;2023-02-01T05:39:11;4.80;99.90
6627;DHT22;3349;49.830;8.748;2023-02-01T05:41:38;4.80;99.90
6627;DHT22;3349;49.830;8.748;2023-02-01T05:44:04;4.70;99.90
6627;DHT22;3349;49.830;8.748;2023-02-01T05:46:32;4.70;99.90
6627;DHT22;3349;49.830;8.748;2023-02-01T05:48:59;4.70;99.90
6627;DHT22;3349;49.830;8.748;2023-02-01T05:51:26;4.70;99.90
6627;DHT22;3349;49.830;8.748;2023-02-01T05:53:54;4.70;99.90
6627;DHT22;3349;49.830;8.748;2023-02-01T05:56:21;4.70;99.90
6627;DHT22;3349;49.830;8.748;2023-02-01T05:58:48;4.70;99.90
6627;DHT22;3349;49.830;8.748;2023-02-01T06:01:14;4.70;99.90
6627;DHT22;3349;49.830;8.748;2023-02-01T06:03:41;4.70;99.90
6627;DHT22;3349;49.830;8.748;2023-02-01T06:06:08;4.70;99.90
6627;DHT22;3349;49.830;8.748;2023-02-01T06:08:35;4.70;99.90
6627;DHT22;3349;49.830;8.748;2023-02-01T06:11:04;4.70;99.90
6627;DHT22;3349;49.830;8.748;2023-02-01T06:13:32;4.70;99.90
6627;DHT22;3349;49.830;8.748;2023-02-01T06:15:58;4.70;99.90
6627;DHT22;3349;49.830;8.748;2023-02-01T06:18:25;4.70;99.90
6627;DHT22;3349;49.830;8.748;2023-02-01T06:20:53;4.70;99.90
6627;DHT22;3349;49.830;8.748;2023-02-01T06:23:19;4.70;99.90
6627;DHT22;3349;49.830;8.748;2023-02-01T06:25:50;4.70;99.90
6627;DHT22;3349;49.830;8.748;2023-02-01T06:28:18;4.70;99.90
6627;DHT22;3349;49.830;8.748;2023-02-01T06:30:45;4.80;99.90
6627;DHT22;3349;49.830;8.748;2023-02-01T06:33:13;4.80;99.90
6627;DHT22;3349;49.830;8.748;2023-02-01T06:35:41;4.80;99.90
6627;DHT22;3349;49.830;8.748;2023-02-01T06:38:09;4.90;99.90
6627;DHT22;3349;49.830;8.748;2023-02-01T06:40:36;4.90;99.90
6627;DHT22;3349;49.830;8.748;2023-02-01T06:43:03;4.90;99.90
6627;DHT22;3349;49.830;8.748;2023-02-01T06:45:31;4.90;99.90
6627;DHT22;3349;49.830;8.748;2023-02-01T06:47:58;4.90;99.90
6627;DHT22;3349;49.830;8.748;2023-02-01T06:50:25;5.00;99.90
6627;DHT22;3349;49.830;8.748;2023-02-01T06:52:52;5.00;99.90
6627;DHT22;3349;49.830;8.748;2023-02-01T06:55:19;5.10;99.90
6627;DHT22;3349;49.830;8.748;2023-02-01T06:57:45;5.00;99.90
6627;DHT22;3349;49.830;8.748;2023-02-01T07:00:13;5.00;99.90
6627;DHT22;3349;49.830;8.748;2023-02-01T07:02:41;5.00;99.90
6627;DHT22;3349;49.830;8.748;2023-02-01T07:05:08;4.90;99.90
6627;DHT22;3349;49.830;8.748;2023-02-01T07:07:35;4.80;99.90
6627;DHT22;3349;49.830;8.748;2023-02-01T07:10:02;4.70;99.90
6627;DHT22;3349;49.830;8.748;2023-02-01T07:12:29;4.60;99.90
6627;DHT22;3349;49.830;8.748;2023-02-01T07:14:55;4.50;99.90
6627;DHT22;3349;49.830;8.748;2023-02-01T07:17:22;4.50;99.90
6627;DHT22;3349;49.830;8.748;2023-02-01T07:19:50;4.50;99.90
6627;DHT22;3349;49.830;8.748;2023-02-01T07:22:17;4.50;99.90
6627;DHT22;3349;49.830;8.748;2023-02-01T07:24:44;4.40;99.90
6627;DHT22;3349;49.830;8.748;2023-02-01T07:27:11;4.40;99.90
6627;DHT22;3349;49.830;8.748;2023-02-01T07:29:37;4.40;99.90
6627;DHT22;3349;49.830;8.748;2023-02-01T07:32:04;4.40;99.90
6627;DHT22;3349;49.830;8.748;2023-02-01T07:34:32;4.40;99.90
6627;DHT22;3349;49.830;8.748;2023-02-01T07:37:00;4.40;99.90
6627;DHT22;3349;49.830;8.748;2023-02-01T07:39:28;4.40;99.90
6627;DHT22;3349;49.830;8.748;2023-02-01T07:41:57;4.50;99.90
6627;DHT22;3349;49.830;8.748;2023-02-01T07:44:24;4.50;99.90
6627;DHT22;3349;49.830;8.748;2023-02-01T07:46:50;4.60;99.90
6627;DHT22;3349;49.830;8.748;2023-02-01T07:49:17;4.60;99.90
6627;DHT22;3349;49.830;8.748;2023-02-01T07:51:44;4.60;99.90
6627;DHT22;3349;49.830;8.748;2023-02-01T07:54:12;4.70;99.90
6627;DHT22;3349;49.830;8.748;2023-02-01T07:56:39;4.70;99.90
6627;DHT22;3349;49.830;8.748;2023-02-01T07:59:05;4.70;99.90
6627;DHT22;3349;49.830;8.748;2023-02-01T08:01:33;4.80;99.90
6627;DHT22;3349;49.830;8.748;2023-02-01T08:04:00;4.80;99.90
6627;DHT22;3349;49.830;8.748;2023-02-01T08:06:29;4.90;99.90
6627;DHT22;3349;49.830;8.748;2023-02-01T08:08:56;4.90;99.90
6627;DHT22;3349;49.830;8.748;2023-02-01T08:11:25;4.90;99.90
6627;DHT22;3349;49.830;8.748;2023-02-01T08:13:52;4.90;99.90
6627;DHT22;3349;49.830;8.748;2023-02-01T08:16:20;5.00;99.90
6627;DHT22;3349;49.830;8.748;2023-02-01T08:18:47;5.10;99.90
6627;DHT22;3349;49.830;8.748;2023-02-01T08:21:15;5.10;99.90
6627;DHT22;3349;49.830;8.748;2023-02-01T08:23:43;5.20;99.90
6627;DHT22;3349;49.830;8.748;2023-02-01T08:26:12;5.20;99.90
6627;DHT22;3349;49.830;8.748;2023-02-01T08:28:42;5.30;99.90
6627;DHT22;3349;49.830;8.748;2023-02-01T08:31:11;5.30;99.90
6627;DHT22;3349;49.830;8.748;2023-02-01T08:33:41;5.40;99.90
6627;DHT22;3349;49.830;8.748;2023-02-01T08:36:09;5.30;99.90
6627;DHT22;3349;49.830;8.748;2023-02-01T08:38:37;5.40;98.90
6627;DHT22;3349;49.830;8.748;2023-02-01T08:41:05;5.40;98.90
6627;DHT22;3349;49.830;8.748;2023-02-01T08:43:32;5.40;99.20
6627;DHT22;3349;49.830;8.748;2023-02-01T08:46:00;5.40;99.70
6627;DHT22;3349;49.830;8.748;2023-02-01T08:48:27;5.50;99.80
6627;DHT22;3349;49.830;8.748;2023-02-01T08:50:54;5.70;99.60
6627;DHT22;3349;49.830;8.748;2023-02-01T08:53:20;5.90;97.90
6627;DHT22;3349;49.830;8.748;2023-02-01T08:55:47;6.00;97.00
6627;DHT22;3349;49.830;8.748;2023-02-01T08:58:14;6.00;93.10
6627;DHT22;3349;49.830;8.748;2023-02-01T09:00:42;6.10;93.00
6627;DHT22;3349;49.830;8.748;2023-02-01T09:03:11;6.10;92.70
6627;DHT22;3349;49.830;8.748;2023-02-01T09:05:38;6.10;92.90
6627;DHT22;3349;49.830;8.748;2023-02-01T09:08:05;6.10;92.10
6627;DHT22;3349;49.830;8.748;2023-02-01T09:10:32;6.10;91.90
6627;DHT22;3349;49.830;8.748;2023-02-01T09:12:59;6.10;91.90
6627;DHT22;3349;49.830;8.748;2023-02-01T09:15:25;6.10;91.30
6627;DHT22;3349;49.830;8.748;2023-02-01T09:17:52;6.20;90.80
6627;DHT22;3349;49.830;8.748;2023-02-01T09:20:20;6.10;90.00
6627;DHT22;3349;49.830;8.748;2023-02-01T09:22:50;6.10;90.20
6627;DHT22;3349;49.830;8.748;2023-02-01T09:25:16;6.00;90.90
6627;DHT22;3349;49.830;8.748;2023-02-01T09:27:43;6.00;90.80
6627;DHT22;3349;49.830;8.748;2023-02-01T09:30:11;6.00;90.80
6627;DHT22;3349;49.830;8.748;2023-02-01T09:32:38;6.00;91.90
6627;DHT22;3349;49.830;8.748;2023-02-01T09:35:05;6.10;91.70
6627;DHT22;3349;49.830;8.748;2023-02-01T09:37:33;6.20;92.60
6627;DHT22;3349;49.830;8.748;2023-02-01T09:40:00;6.40;92.10
6627;DHT22;3349;49.830;8.748;2023-02-01T09:42:43;6.40;91.00
6627;DHT22;3349;49.830;8.748;2023-02-01T09:45:21;6.40;91.50
6627;DHT22;3349;49.830;8.748;2023-02-01T09:47:53;6.40;93.00
6627;DHT22;3349;49.830;8.748;2023-02-01T09:50:25;6.30;93.60
6627;DHT22;3349;49.830;8.748;2023-02-01T09:52:59;6.40;93.40
6627;DHT22;3349;49.830;8.748;2023-02-01T09:55:32;6.30;94.20
6627;DHT22;3349;49.830;8.748;2023-02-01T09:58:04;6.20;95.10
6627;DHT22;3349;49.830;8.748;2023-02-01T10:00:35;6.20;96.00
6627;DHT22;3349;49.830;8.748;2023-02-01T10:03:02;6.30;95.60
6627;DHT22;3349;49.830;8.748;2023-02-01T10:05:48;6.20;93.10
6627;DHT22;3349;49.830;8.748;2023-02-01T10:08:27;6.20;93.50
6627;DHT22;3349;49.830;8.748;2023-02-01T10:11:03;6.20;93.80
6627;DHT22;3349;49.830;8.748;2023-02-01T10:13:43;6.10;92.60
6627;DHT22;3349;49.830;8.748;2023-02-01T10:16:20;6.20;93.00
6627;DHT22;3349;49.830;8.748;2023-02-01T10:21:53;6.20;92.90
6627;DHT22;3349;49.830;8.748;2023-02-01T10:24:32;6.10;91.30
6627;DHT22;3349;49.830;8.748;2023-02-01T10:27:07;6.20;91.30
6627;DHT22;3349;49.830;8.748;2023-02-01T10:29:39;6.30;91.40
6627;DHT22;3349;49.830;8.748;2023-02-01T10:32:13;6.30;90.00
6627;DHT22;3349;49.830;8.748;2023-02-01T10:34:41;6.30;87.70
6627;DHT22;3349;49.830;8.748;2023-02-01T10:37:16;6.40;85.50
6627;DHT22;3349;49.830;8.748;2023-02-01T10:39:47;6.30;82.50
6627;DHT22;3349;49.830;8.748;2023-02-01T10:42:15;6.40;83.90
6627;DHT22;3349;49.830;8.748;2023-02-01T10:44:44;6.50;81.50
6627;DHT22;3349;49.830;8.748;2023-02-01T10:47:13;6.60;80.70
6627;DHT22;3349;49.830;8.748;2023-02-01T10:49:45;6.70;79.20
6627;DHT22;3349;49.830;8.748;2023-02-01T10:52:16;6.80;77.90
6627;DHT22;3349;49.830;8.748;2023-02-01T10:54:44;7.00;76.20
6627;DHT22;3349;49.830;8.748;2023-02-01T10:57:21;7.10;75.50
6627;DHT22;3349;49.830;8.748;2023-02-01T10:59:47;6.90;75.40
6627;DHT22;3349;49.830;8.748;2023-02-01T11:02:20;6.80;76.00
6627;DHT22;3349;49.830;8.748;2023-02-01T11:04:58;6.70;75.70
6627;DHT22;3349;49.830;8.748;2023-02-01T11:07:26;6.50;76.80
6627;DHT22;3349;49.830;8.748;2023-02-01T11:09:54;6.40;77.90
6627;DHT22;3349;49.830;8.748;2023-02-01T11:12:31;6.50;78.50
6627;DHT22;3349;49.830;8.748;2023-02-01T11:15:12;6.40;78.80
6627;DHT22;3349;49.830;8.748;2023-02-01T11:17:42;6.40;78.50
6627;DHT22;3349;49.830;8.748;2023-02-01T11:20:15;6.30;79.00
6627;DHT22;3349;49.830;8.748;2023-02-01T11:22:46;6.30;78.00
6627;DHT22;3349;49.830;8.748;2023-02-01T11:25:16;6.30;78.10
6627;DHT22;3349;49.830;8.748;2023-02-01T11:27:44;6.30;79.00
6627;DHT22;3349;49.830;8.748;2023-02-01T11:30:17;6.30;79.30
6627;DHT22;3349;49.830;8.748;2023-02-01T11:32:45;6.30;78.50
6627;DHT22;3349;49.830;8.748;2023-02-01T11:35:17;6.30;78.60
6627;DHT22;3349;49.830;8.748;2023-02-01T11:37:50;6.30;80.30
6627;DHT22;3349;49.830;8.748;2023-02-01T11:40:35;6.30;80.40
6627;DHT22;3349;49.830;8.748;2023-02-01T11:43:13;6.30;80.40
6627;DHT22;3349;49.830;8.748;2023-02-01T11:45:40;6.30;79.30
6627;DHT22;3349;49.830;8.748;2023-02-01T11:48:09;6.30;78.30
6627;DHT22;3349;49.830;8.748;2023-02-01T11:50:40;6.30;77.30
6627;DHT22;3349;49.830;8.748;2023-02-01T11:53:24;6.30;78.40
6627;DHT22;3349;49.830;8.748;2023-02-01T11:56:05;6.40;77.60
6627;DHT22;3349;49.830;8.748;2023-02-01T12:01:44;6.50;76.20
6627;DHT22;3349;49.830;8.748;2023-02-01T12:04:35;6.50;76.20
6627;DHT22;3349;49.830;8.748;2023-02-01T12:07:11;6.50;75.80
6627;DHT22;3349;49.830;8.748;2023-02-01T12:09:57;6.40;76.10
6627;DHT22;3349;49.830;8.748;2023-02-01T12:12:34;6.40;75.60
6627;DHT22;3349;49.830;8.748;2023-02-01T12:15:16;6.40;76.20
6627;DHT22;3349;49.830;8.748;2023-02-01T12:21:06;6.30;78.70
6627;DHT22;3349;49.830;8.748;2023-02-01T12:23:52;6.30;78.20
6627;DHT22;3349;49.830;8.748;2023-02-01T12:26:39;6.30;78.30
6627;DHT22;3349;49.830;8.748;2023-02-01T12:29:32;6.30;78.10
6627;DHT22;3349;49.830;8.748;2023-02-01T12:32:11;6.30;78.10
6627;DHT22;3349;49.830;8.748;2023-02-01T12:37:58;6.30;78.50
6627;DHT22;3349;49.830;8.748;2023-02-01T12:40:45;6.30;77.70
6627;DHT22;3349;49.830;8.748;2023-02-01T12:43:16;6.30;78.00
6627;DHT22;3349;49.830;8.748;2023-02-01T12:45:51;6.30;77.90
6627;DHT22;3349;49.830;8.748;2023-02-01T12:48:28;6.30;77.90
6627;DHT22;3349;49.830;8.748;2023-02-01T12:50:57;6.40;77.90
6627;DHT22;3349;49.830;8.748;2023-02-01T12:53:32;6.40;77.90
6627;DHT22;3349;49.830;8.748;2023-02-01T12:56:04;6.40;76.50
6627;DHT22;3349;49.830;8.748;2023-02-01T12:58:40;6.40;75.20
6627;DHT22;3349;49.830;8.748;2023-02-01T13:01:11;6.50;73.60
6627;DHT22;3349;49.830;8.748;2023-02-01T13:03:44;6.50;74.40
6627;DHT22;3349;49.830;8.748;2023-02-01T13:06:17;6.50;74.00
6627;DHT22;3349;49.830;8.748;2023-02-01T13:08:48;6.50;73.90
6627;DHT22;3349;49.830;8.748;2023-02-01T13:11:22;6.50;74.10
6627;DHT22;3349;49.830;8.748;2023-02-01T13:13:56;6.40;73.50
6627;DHT22;3349;49.830;8.748;2023-02-01T13:16:28;6.40;74.00
6627;DHT22;3349;49.830;8.748;2023-02-01T13:19:03;6.40;74.80
6627;DHT22;3349;49.830;8.748;2023-02-01T13:21:34;6.40;73.80
6627;DHT22;3349;49.830;8.748;2023-02-01T13:24:02;6.40;74.10
6627;DHT22;3349;49.830;8.748;2023-02-01T13:26:29;6.30;75.00
6627;DHT22;3349;49.830;8.748;2023-02-01T13:28:58;6.30;75.00
6627;DHT22;3349;49.830;8.748;2023-02-01T13:31:49;6.30;75.70
6627;DHT22;3349;49.830;8.748;2023-02-01T13:34:43;6.30;75.50
6627;DHT22;3349;49.830;8.748;2023-02-01T13:37:47;6.30;75.40
6627;DHT22;3349;49.830;8.748;2023-02-01T13:40:36;6.30;76.00
6627;DHT22;3349;49.830;8.748;2023-02-01T13:43:08;6.30;76.10
6627;DHT22;3349;49.830;8.748;2023-02-01T13:45:43;6.20;76.70
6627;DHT22;3349;49.830;8.748;2023-02-01T13:48:19;6.20;77.80
6627;DHT22;3349;49.830;8.748;2023-02-01T13:50:52;6.20;77.60
6627;DHT22;3349;49.830;8.748;2023-02-01T13:53:25;6.20;77.80
6627;DHT22;3349;49.830;8.748;2023-02-01T13:55:57;6.20;77.50
6627;DHT22;3349;49.830;8.748;2023-02-01T13:58:31;6.20;78.30
6627;DHT22;3349;49.830;8.748;2023-02-01T14:07:19;6.20;78.50
6627;DHT22;3349;49.830;8.748;2023-02-01T14:09:46;6.20;78.90
6627;DHT22;3349;49.830;8.748;2023-02-01T14:12:43;6.20;79.60
6627;DHT22;3349;49.830;8.748;2023-02-01T14:15:20;6.20;79.70
6627;DHT22;3349;49.830;8.748;2023-02-01T14:17:48;6.20;79.20
6627;DHT22;3349;49.830;8.748;2023-02-01T14:20:46;6.20;78.90
6627;DHT22;3349;49.830;8.748;2023-02-01T14:23:28;6.20;78.90
6627;DHT22;3349;49.830;8.748;2023-02-01T14:26:09;6.30;78.20
6627;DHT22;3349;49.830;8.748;2023-02-01T14:28:41;6.20;78.20
6627;DHT22;3349;49.830;8.748;2023-02-01T14:31:26;6.30;77.90
6627;DHT22;3349;49.830;8.748;2023-02-01T14:33:57;6.30;77.20
6627;DHT22;3349;49.830;8.748;2023-02-01T14:36:25;6.30;78.40
6627;DHT22;3349;49.830;8.748;2023-02-01T14:38:54;6.30;78.30
6627;DHT22;3349;49.830;8.748;2023-02-01T14:41:29;6.30;78.10
6627;DHT22;3349;49.830;8.748;2023-02-01T14:44:22;6.30;79.00
6627;DHT22;3349;49.830;8.748;2023-02-01T14:50:23;6.30;79.20
6627;DHT22;3349;49.830;8.748;2023-02-01T14:53:02;6.30;79.50
6627;DHT22;3349;49.830;8.748;2023-02-01T14:55:35;6.30;78.60
6627;DHT22;3349;49.830;8.748;2023-02-01T14:58:06;6.30;78.50
6627;DHT22;3349;49.830;8.748;2023-02-01T15:00:37;6.30;79.30
6627;DHT22;3349;49.830;8.748;2023-02-01T15:03:33;6.30;79.90
6627;DHT22;3349;49.830;8.748;2023-02-01T15:06:02;6.30;79.30
6627;DHT22;3349;49.830;8.748;2023-02-01T15:08:34;6.30;78.60
6627;DHT22;3349;49.830;8.748;2023-02-01T15:11:08;6.30;78.40
6627;DHT22;3349;49.830;8.748;2023-02-01T15:13:37;6.30;78.80
6627;DHT22;3349;49.830;8.748;2023-02-01T15:16:08;6.30;79.00
6627;DHT22;3349;49.830;8.748;2023-02-01T15:18:36;6.30;78.10
6627;DHT22;3349;49.830;8.748;2023-02-01T15:21:05;6.30;77.30
6627;DHT22;3349;49.830;8.748;2023-02-01T15:23:32;6.30;78.40
6627;DHT22;3349;49.830;8.748;2023-02-01T15:25:59;6.40;77.20
6627;DHT22;3349;49.830;8.748;2023-02-01T15:28:27;6.40;76.20
6627;DHT22;3349;49.830;8.748;2023-02-01T15:30:57;6.40;75.10
6627;DHT22;3349;49.830;8.748;2023-02-01T15:33:24;6.40;75.50
6627;DHT22;3349;49.830;8.748;2023-02-01T15:35:53;6.40;75.10
6627;DHT22;3349;49.830;8.748;2023-02-01T15:38:35;6.40;73.90
6627;DHT22;3349;49.830;8.748;2023-02-01T15:41:05;6.40;74.20
6627;DHT22;3349;49.830;8.748;2023-02-01T15:43:37;6.40;74.60
6627;DHT22;3349;49.830;8.748;2023-02-01T15:46:08;6.40;73.70
6627;DHT22;3349;49.830;8.748;2023-02-01T15:48:39;6.40;74.20
6627;DHT22;3349;49.830;8.748;2023-02-01T15:51:13;6.50;73.90
6627;DHT22;3349;49.830;8.748;2023-02-01T15:53:44;6.40;73.90
6627;DHT22;3349;49.830;8.748;2023-02-01T15:56:13;6.40;74.30
6627;DHT22;3349;49.830;8.748;2023-02-01T15:58:53;6.40;74.60
6627;DHT22;3349;49.830;8.748;2023-02-01T16:01:20;6.40;74.10
6627;DHT22;3349;49.830;8.748;2023-02-01T16:03:47;6.40;74.60
6627;DHT22;3349;49.830;8.748;2023-02-01T16:06:28;6.40;74.80
6627;DHT22;3349;49.830;8.748;2023-02-01T16:09:00;6.40;74.50
6627;DHT22;3349;49.830;8.748;2023-02-01T16:11:29;6.40;74.30
6627;DHT22;3349;49.830;8.748;2023-02-01T16:13:58;6.50;74.40
6627;DHT22;3349;49.830;8.748;2023-02-01T16:16:25;6.50;73.30
6627;DHT22;3349;49.830;8.748;2023-02-01T16:18:52;6.50;73.80
6627;DHT22;3349;49.830;8.748;2023-02-01T16:21:19;6.50;74.00
6627;DHT22;3349;49.830;8.748;2023-02-01T16:23:50;6.50;74.40
6627;DHT22;3349;49.830;8.748;2023-02-01T16:26:17;6.40;74.00
6627;DHT22;3349;49.830;8.748;2023-02-01T16:28:44;6.40;73.90
6627;DHT22;3349;49.830;8.748;2023-02-01T16:31:14;6.50;73.60
6627;DHT22;3349;49.830;8.748;2023-02-01T16:33:46;6.50;73.70
6627;DHT22;3349;49.830;8.748;2023-02-01T16:36:13;6.40;74.90
6627;DHT22;3349;49.830;8.748;2023-02-01T16:38:40;6.50;74.50
6627;DHT22;3349;49.830;8.748;2023-02-01T16:41:08;6.40;75.50
6627;DHT22;3349;49.830;8.748;2023-02-01T16:43:36;6.40;75.00
6627;DHT22;3349;49.830;8.748;2023-02-01T16:46:03;6.40;75.00
6627;DHT22;3349;49.830;8.748;2023-02-01T16:48:34;6.40;75.10
6627;DHT22;3349;49.830;8.748;2023-02-01T16:51:03;6.40;75.60
6627;DHT22;3349;49.830;8.748;2023-02-01T16:53:32;6.40;74.80
6627;DHT22;3349;49.830;8.748;2023-02-01T16:55:59;6.50;75.50
6627;DHT22;3349;49.830;8.748;2023-02-01T16:58:26;6.40;75.90
6627;DHT22;3349;49.830;8.748;2023-02-01T17:00:53;6.40;76.20
6627;DHT22;3349;49.830;8.748;2023-02-01T17:03:21;6.40;76.40
6627;DHT22;3349;49.830;8.748;2023-02-01T17:05:51;6.40;76.30